Terminal Aerodrome Forecast
Issued by NWS Burlington, VT

Home | Current Version | Previous Version | Text Only | Print | Product List | Glossary On
Versions: 1 2 3 4 5 6 7 8 9 10 11 12 13 14 15 16 17 18
981
FTUS41 KBTV 172333
TAFBTV
TAF
KBTV 172333Z 1800/1824 17008KT 2SM -RASN BR OVC040
     FM180200 16009KT 1SM -SN BR OVC025
     FM181500 18007KT P6SM VCSH OVC025
     FM181700 19007KT P6SM VCSH OVC020=

USA.gov is the U.S. government's official web portal to all federal, state and local government web resources and services.